createdAt,value
2018-10-18T00:01:17.965Z,51.88
2018-10-18T00:03:44.310Z,51.97
2018-10-18T00:06:10.696Z,52.15
2018-10-18T00:08:37.001Z,52.14
2018-10-18T00:11:03.311Z,52.39
2018-10-18T00:13:29.660Z,52.40
2018-10-18T00:15:55.962Z,52.56
2018-10-18T00:18:22.313Z,52.73
2018-10-18T00:20:48.647Z,52.77
2018-10-18T00:23:15.009Z,52.98
2018-10-18T00:25:41.304Z,53.01
2018-10-18T00:28:07.627Z,53.07
2018-10-18T00:30:33.944Z,53.10
2018-10-18T00:33:00.251Z,53.22
2018-10-18T00:35:26.556Z,53.30
2018-10-18T00:37:52.931Z,53.37
2018-10-18T00:40:19.189Z,53.35
2018-10-18T00:42:45.488Z,53.47
2018-10-18T00:45:11.823Z,53.46
2018-10-18T00:47:38.170Z,53.56
2018-10-18T00:50:04.524Z,53.75
2018-10-18T00:52:30.838Z,53.78
2018-10-18T00:54:57.141Z,53.70
2018-10-18T00:57:23.479Z,53.75
2018-10-18T00:59:49.779Z,53.81
2018-10-18T01:02:16.167Z,53.95
2018-10-18T01:04:42.417Z,54.19
2018-10-18T01:07:08.730Z,54.13
2018-10-18T01:09:35.069Z,54.04
2018-10-18T01:12:01.394Z,54.00
2018-10-18T01:14:27.673Z,54.00
2018-10-18T01:16:54.004Z,54.26
2018-10-18T01:19:20.371Z,54.30
2018-10-18T01:21:46.703Z,54.36
2018-10-18T01:24:13.115Z,54.35
2018-10-18T01:26:39.304Z,54.48
2018-10-18T01:29:05.631Z,54.75
2018-10-18T01:31:31.932Z,54.84
2018-10-18T01:33:58.240Z,54.84
2018-10-18T01:36:24.637Z,54.89
2018-10-18T01:38:50.942Z,55.07
2018-10-18T01:41:17.274Z,55.14
2018-10-18T01:43:43.579Z,55.28
2018-10-18T01:46:09.911Z,55.47
2018-10-18T01:48:36.287Z,55.64
2018-10-18T01:51:02.617Z,55.56
2018-10-18T01:53:28.913Z,55.63
2018-10-18T01:55:55.259Z,55.64
2018-10-18T01:58:21.558Z,55.87
2018-10-18T02:00:47.857Z,55.97
2018-10-18T02:03:14.232Z,56.10
2018-10-18T02:05:40.531Z,56.14
2018-10-18T02:08:06.928Z,56.16
2018-10-18T02:10:33.161Z,56.41
2018-10-18T02:12:59.469Z,56.43
2018-10-18T02:15:25.764Z,56.38
2018-10-18T02:17:52.182Z,56.43
2018-10-18T02:20:18.436Z,56.51
2018-10-18T02:22:44.778Z,56.45
2018-10-18T02:25:11.133Z,56.49
2018-10-18T02:27:37.415Z,56.70
2018-10-18T02:30:07.668Z,56.78
2018-10-18T02:32:33.925Z,56.90
2018-10-18T02:35:00.254Z,56.95
2018-10-18T02:37:26.601Z,57.10
2018-10-18T02:39:52.921Z,57.19
2018-10-18T02:42:19.287Z,57.22
2018-10-18T02:44:45.569Z,57.26
2018-10-18T02:47:11.894Z,57.18
2018-10-18T02:49:38.213Z,57.41
2018-10-18T02:52:04.549Z,57.39
2018-10-18T02:54:30.879Z,57.39
2018-10-18T02:56:57.217Z,57.50
2018-10-18T02:59:23.566Z,57.51
2018-10-18T03:01:49.865Z,57.67
2018-10-18T03:04:16.171Z,57.81
2018-10-18T03:06:42.499Z,57.98
2018-10-18T03:09:08.833Z,58.06
2018-10-18T03:11:35.203Z,58.22
2018-10-18T03:14:01.541Z,58.33
2018-10-18T03:16:27.868Z,58.52
2018-10-18T03:18:54.175Z,58.56
2018-10-18T03:21:20.521Z,58.74
2018-10-18T03:23:46.850Z,58.97
2018-10-18T03:26:13.194Z,59.09
2018-10-18T03:28:39.507Z,59.27
2018-10-18T03:31:05.821Z,59.63
2018-10-18T03:33:32.120Z,59.67
2018-10-18T03:35:58.475Z,59.66
2018-10-18T03:38:24.781Z,59.58
2018-10-18T03:40:51.135Z,59.73
2018-10-18T03:43:17.456Z,59.72
2018-10-18T03:45:43.817Z,59.83
2018-10-18T03:48:10.150Z,59.94
2018-10-18T03:50:36.395Z,59.87
2018-10-18T03:53:02.743Z,59.32
2018-10-18T03:55:29.050Z,58.76
2018-10-18T03:57:55.340Z,58.46
2018-10-18T04:00:21.761Z,58.18
2018-10-18T04:02:47.996Z,58.04
2018-10-18T04:05:14.307Z,57.86
2018-10-18T04:07:40.670Z,57.72
2018-10-18T04:10:06.982Z,57.54
2018-10-18T04:12:33.365Z,59.30
2018-10-18T04:14:59.639Z,60.96
2018-10-18T04:17:25.984Z,61.59
2018-10-18T04:19:52.287Z,60.95
2018-10-18T04:22:18.620Z,60.54
2018-10-18T04:24:44.969Z,60.38
2018-10-18T04:27:11.301Z,59.98
2018-10-18T04:29:37.639Z,58.91
2018-10-18T04:32:03.942Z,58.26
2018-10-18T04:34:30.264Z,57.85
2018-10-18T04:36:56.572Z,57.60
2018-10-18T04:39:22.889Z,57.47
2018-10-18T04:41:49.237Z,57.34
2018-10-18T04:44:15.563Z,57.36
2018-10-18T04:46:41.884Z,57.34
2018-10-18T04:49:08.273Z,57.39
2018-10-18T04:51:34.560Z,57.63
2018-10-18T04:54:00.902Z,57.91
2018-10-18T04:56:27.229Z,58.05
2018-10-18T04:58:53.553Z,57.97
2018-10-18T05:01:19.986Z,57.82
2018-10-18T05:03:46.156Z,57.76
2018-10-18T05:06:12.490Z,57.77
2018-10-18T05:08:38.800Z,57.82
2018-10-18T05:11:05.146Z,57.91
2018-10-18T05:13:31.461Z,58.06
2018-10-18T05:15:57.808Z,58.26
2018-10-18T05:18:24.107Z,58.39
2018-10-18T05:20:50.399Z,58.50
2018-10-18T05:23:16.725Z,58.59
2018-10-18T05:25:43.101Z,58.63
2018-10-18T05:28:09.425Z,58.72
2018-10-18T05:30:35.745Z,59.16
2018-10-18T05:33:02.056Z,59.49
2018-10-18T05:35:28.367Z,59.59
2018-10-18T05:37:54.691Z,59.40
2018-10-18T05:40:21.017Z,59.45
2018-10-18T05:42:47.345Z,59.72
2018-10-18T05:45:13.651Z,59.79
2018-10-18T05:47:39.955Z,59.88
2018-10-18T05:50:06.260Z,60.09
2018-10-18T05:52:32.564Z,60.30
2018-10-18T05:54:58.896Z,60.66
2018-10-18T05:57:25.210Z,60.91
2018-10-18T05:59:51.547Z,60.60
2018-10-18T06:02:17.851Z,60.98
2018-10-18T06:04:44.148Z,60.33
2018-10-18T06:07:10.574Z,60.20
2018-10-18T06:09:36.752Z,60.05
2018-10-18T06:12:03.053Z,60.01
2018-10-18T06:14:29.355Z,60.03
2018-10-18T06:16:55.713Z,61.05
2018-10-18T06:19:22.041Z,60.98
2018-10-18T06:21:48.380Z,60.02
2018-10-18T06:24:14.710Z,60.12
2018-10-18T06:26:41.036Z,60.77
2018-10-18T06:29:07.410Z,60.87
2018-10-18T06:31:33.646Z,60.43
2018-10-18T06:33:59.973Z,59.89
2018-10-18T06:36:26.271Z,59.72
2018-10-18T06:38:52.598Z,59.42
2018-10-18T06:41:18.967Z,59.18
2018-10-18T06:43:45.199Z,59.87
2018-10-18T06:46:11.574Z,59.92
2018-10-18T06:48:37.899Z,59.35
2018-10-18T06:51:04.205Z,60.55
2018-10-18T06:53:30.557Z,61.17
2018-10-18T06:55:56.860Z,60.99
2018-10-18T06:58:23.189Z,60.93
2018-10-18T07:00:49.516Z,61.09
2018-10-18T07:03:15.816Z,61.38
2018-10-18T07:05:42.149Z,61.37
2018-10-18T07:08:08.483Z,61.16
2018-10-18T07:10:34.780Z,61.39
2018-10-18T07:13:01.103Z,61.06
2018-10-18T07:15:27.431Z,61.27
2018-10-18T07:17:53.742Z,61.14
2018-10-18T07:20:20.041Z,60.48
2018-10-18T07:22:46.345Z,60.79
2018-10-18T07:25:12.663Z,61.13
2018-10-18T07:27:38.982Z,61.18
2018-10-18T07:30:05.325Z,60.33
2018-10-18T07:32:31.584Z,61.30
2018-10-18T07:34:57.965Z,62.79
2018-10-18T07:37:24.252Z,61.03
2018-10-18T07:39:50.581Z,60.08
2018-10-18T07:42:16.978Z,60.00
2018-10-18T07:44:43.216Z,59.10
2018-10-18T07:47:09.541Z,59.04
2018-10-18T07:49:35.872Z,59.10
2018-10-18T07:52:02.172Z,59.79
2018-10-18T07:54:28.481Z,59.54
2018-10-18T07:56:54.781Z,59.45
2018-10-18T07:59:21.110Z,59.20
2018-10-18T08:01:47.418Z,58.44
2018-10-18T08:04:13.752Z,58.67
2018-10-18T08:06:40.053Z,59.96
2018-10-18T08:09:06.366Z,58.23
2018-10-18T08:11:32.695Z,57.81
2018-10-18T08:13:59.021Z,56.98
2018-10-18T08:16:25.332Z,56.81
2018-10-18T08:18:51.660Z,56.56
2018-10-18T08:21:17.942Z,56.94
2018-10-18T08:23:44.270Z,57.17
2018-10-18T08:26:10.568Z,56.60
2018-10-18T08:28:36.896Z,56.57
2018-10-18T08:31:03.265Z,57.46
2018-10-18T08:33:29.587Z,56.05
2018-10-18T08:35:55.928Z,55.27
2018-10-18T08:38:22.273Z,54.20
2018-10-18T08:40:48.645Z,53.54
2018-10-18T08:43:14.982Z,53.05
2018-10-18T08:45:41.248Z,51.47
2018-10-18T08:48:07.576Z,51.63
2018-10-18T08:50:33.945Z,51.33
2018-10-18T08:53:00.249Z,52.21
2018-10-18T08:55:26.607Z,53.00
2018-10-18T08:57:52.911Z,53.82
2018-10-18T09:00:19.225Z,52.87
2018-10-18T09:02:45.569Z,51.41
2018-10-18T09:05:11.874Z,51.26
2018-10-18T09:07:38.181Z,50.99
2018-10-18T09:10:04.717Z,50.36
2018-10-18T09:12:30.805Z,48.48
2018-10-18T09:14:57.108Z,48.26
2018-10-18T09:17:23.448Z,47.72
2018-10-18T09:19:49.784Z,47.71
2018-10-18T09:22:16.115Z,47.41
2018-10-18T09:24:42.480Z,47.25
2018-10-18T09:27:08.857Z,48.67
2018-10-18T09:29:35.214Z,48.05
2018-10-18T09:32:01.544Z,49.02
2018-10-18T09:34:27.912Z,48.73
2018-10-18T09:36:54.289Z,48.34
2018-10-18T09:39:20.653Z,48.45
2018-10-18T09:41:46.952Z,47.75
2018-10-18T09:44:13.322Z,46.50
2018-10-18T09:46:39.643Z,47.60
2018-10-18T09:49:06.080Z,46.52
2018-10-18T09:51:32.319Z,46.11
2018-10-18T09:53:58.661Z,47.36
2018-10-18T09:56:24.968Z,48.01
2018-10-18T09:58:51.273Z,49.76
2018-10-18T10:01:17.733Z,50.87
2018-10-18T10:03:43.924Z,51.25
2018-10-18T10:06:10.234Z,50.66
2018-10-18T10:08:36.564Z,47.43
2018-10-18T10:11:02.895Z,50.49
2018-10-18T10:13:29.332Z,50.75
2018-10-18T10:15:55.507Z,50.83
2018-10-18T10:18:21.928Z,48.74
2018-10-18T10:20:48.127Z,45.56
2018-10-18T10:23:14.523Z,44.53
2018-10-18T10:25:40.815Z,43.83
2018-10-18T10:28:07.173Z,44.72
2018-10-18T10:30:33.485Z,45.70
2018-10-18T10:32:59.842Z,43.82
2018-10-18T10:35:26.194Z,43.85
2018-10-18T10:37:52.496Z,42.98
2018-10-18T10:40:18.891Z,44.35
2018-10-18T10:42:45.212Z,46.01
2018-10-18T10:45:11.628Z,45.25
2018-10-18T10:47:37.880Z,47.47
2018-10-18T10:50:04.237Z,48.35
2018-10-18T10:52:30.599Z,45.42
2018-10-18T10:54:56.927Z,46.93
2018-10-18T10:57:23.228Z,47.90
2018-10-18T10:59:49.557Z,47.30
2018-10-18T11:02:15.925Z,47.85
2018-10-18T11:04:42.172Z,48.90
2018-10-18T11:07:08.480Z,49.04
2018-10-18T11:09:34.890Z,49.38
2018-10-18T11:12:01.256Z,45.87
2018-10-18T11:14:27.539Z,44.33
2018-10-18T11:16:53.903Z,45.62
2018-10-18T11:19:20.168Z,44.30
2018-10-18T11:21:46.488Z,46.84
2018-10-18T11:24:12.902Z,43.92
2018-10-18T11:26:39.136Z,44.61
2018-10-18T11:29:05.480Z,44.90
2018-10-18T11:31:31.784Z,45.72
2018-10-18T11:33:58.153Z,46.97
2018-10-18T11:36:24.479Z,47.62
2018-10-18T11:38:50.808Z,47.84
2018-10-18T11:41:17.133Z,47.04
2018-10-18T11:43:43.457Z,44.64
2018-10-18T11:46:09.776Z,43.58
2018-10-18T11:48:36.110Z,43.09
2018-10-18T11:51:02.439Z,45.62
2018-10-18T11:53:28.779Z,46.70
2018-10-18T11:55:55.115Z,47.21
2018-10-18T11:58:21.423Z,44.99
2018-10-18T12:00:47.804Z,46.59
2018-10-18T12:03:14.200Z,47.49
2018-10-18T12:05:40.466Z,45.56
2018-10-18T12:08:06.804Z,45.59
2018-10-18T12:10:33.112Z,45.34
2018-10-18T12:12:59.432Z,43.91
2018-10-18T12:15:25.762Z,44.14
2018-10-18T12:17:52.083Z,45.25
2018-10-18T12:20:18.470Z,44.44
2018-10-18T12:22:44.783Z,44.97
2018-10-18T12:25:11.105Z,43.75
2018-10-18T12:27:37.441Z,42.13
2018-10-18T12:30:03.752Z,42.33
2018-10-18T12:32:30.081Z,42.31
2018-10-18T12:34:56.508Z,42.99
2018-10-18T12:37:22.769Z,42.90
2018-10-18T12:39:49.095Z,42.36
2018-10-18T12:42:15.413Z,41.73
2018-10-18T12:44:41.734Z,41.91
2018-10-18T12:47:08.067Z,41.71
2018-10-18T12:49:34.385Z,41.30
2018-10-18T12:52:00.702Z,43.04
2018-10-18T12:54:27.100Z,44.48
2018-10-18T12:56:53.429Z,43.05
2018-10-18T12:59:19.769Z,42.78
2018-10-18T13:01:46.117Z,42.70
2018-10-18T13:04:12.418Z,43.09
2018-10-18T13:06:38.749Z,42.60
2018-10-18T13:09:05.126Z,42.25
2018-10-18T13:11:31.418Z,41.94
2018-10-18T13:13:57.804Z,42.65
2018-10-18T13:16:24.126Z,42.12
2018-10-18T13:18:50.448Z,41.11
2018-10-18T13:21:16.816Z,42.17
2018-10-18T13:23:43.128Z,41.99
2018-10-18T13:26:09.489Z,42.16
2018-10-18T13:28:35.784Z,41.30
2018-10-18T13:31:02.113Z,41.26
2018-10-18T13:33:28.453Z,41.95
2018-10-18T13:35:54.776Z,42.49
2018-10-18T13:38:21.098Z,42.04
2018-10-18T13:40:47.490Z,41.83
2018-10-18T13:43:13.752Z,41.32
2018-10-18T13:45:40.073Z,40.74
2018-10-18T13:48:06.498Z,41.23
2018-10-18T13:50:32.734Z,40.57
2018-10-18T13:52:59.065Z,41.24
2018-10-18T13:55:25.394Z,41.94
2018-10-18T13:57:51.729Z,42.71
2018-10-18T14:00:18.149Z,41.31
2018-10-18T14:02:44.366Z,41.66
2018-10-18T14:05:10.786Z,41.02
2018-10-18T14:07:37.050Z,40.63
2018-10-18T14:10:03.366Z,39.86
2018-10-18T14:12:29.691Z,40.45
2018-10-18T14:14:56.043Z,40.45
2018-10-18T14:17:22.529Z,40.87
2018-10-18T14:19:48.738Z,40.03
2018-10-18T14:22:15.055Z,40.38
2018-10-18T14:24:41.383Z,40.46
2018-10-18T14:27:07.707Z,40.64
2018-10-18T14:29:34.024Z,40.52
2018-10-18T14:32:00.400Z,40.69
2018-10-18T14:34:26.772Z,41.05
2018-10-18T14:36:53.104Z,41.12
2018-10-18T14:39:19.431Z,41.12
2018-10-18T14:41:45.750Z,41.26
2018-10-18T14:44:12.129Z,40.95
2018-10-18T14:46:38.382Z,40.80
2018-10-18T14:49:04.693Z,40.93
2018-10-18T14:51:31.069Z,41.49
2018-10-18T14:53:57.361Z,42.61
2018-10-18T14:56:23.691Z,43.44
2018-10-18T14:58:50.024Z,45.21
2018-10-18T15:01:16.348Z,45.72
2018-10-18T15:03:42.723Z,46.07
2018-10-18T15:06:09.056Z,46.12
2018-10-18T15:08:35.378Z,47.05
2018-10-18T15:11:01.722Z,46.82
2018-10-18T15:13:28.015Z,47.06
2018-10-18T15:15:54.361Z,47.20
2018-10-18T15:18:20.731Z,47.35
2018-10-18T15:20:47.097Z,47.30
2018-10-18T15:23:13.473Z,46.99
2018-10-18T15:25:40.119Z,47.27
2018-10-18T15:28:06.110Z,47.77
2018-10-18T15:30:32.470Z,47.36
2018-10-18T15:32:58.763Z,47.31
2018-10-18T15:35:25.078Z,48.02
2018-10-18T15:37:51.439Z,47.63
2018-10-18T15:40:17.719Z,47.91
2018-10-18T15:42:44.039Z,47.74
2018-10-18T15:45:10.401Z,47.43
2018-10-18T15:47:36.757Z,47.17
2018-10-18T15:50:03.019Z,47.48
2018-10-18T15:52:29.345Z,47.82
2018-10-18T15:54:55.670Z,47.55
2018-10-18T15:57:21.998Z,47.41
2018-10-18T15:59:48.314Z,48.04
2018-10-18T16:02:14.649Z,48.66
2018-10-18T16:04:41.011Z,49.53
2018-10-18T16:07:07.308Z,48.36
2018-10-18T16:09:33.634Z,48.39
2018-10-18T16:12:00.017Z,48.14
2018-10-18T16:14:26.419Z,48.31
2018-10-18T16:16:52.761Z,48.53
2018-10-18T16:19:19.079Z,48.53
2018-10-18T16:21:45.432Z,48.72
2018-10-18T16:24:11.794Z,48.61
2018-10-18T16:26:38.138Z,48.68
2018-10-18T16:29:04.459Z,48.32
2018-10-18T16:31:30.780Z,48.24
2018-10-18T16:33:57.191Z,48.14
2018-10-18T16:36:23.423Z,48.21
2018-10-18T16:38:49.752Z,48.20
2018-10-18T16:41:16.410Z,48.14
2018-10-18T16:43:42.438Z,48.21
2018-10-18T16:46:08.888Z,48.00
2018-10-18T16:48:35.108Z,47.79
2018-10-18T16:51:01.465Z,47.39
2018-10-18T16:53:27.768Z,47.48
2018-10-18T16:55:54.129Z,46.56
2018-10-18T16:58:20.431Z,46.18
2018-10-18T17:00:46.762Z,45.69
2018-10-18T17:03:13.083Z,45.12
2018-10-18T17:05:39.413Z,44.84
2018-10-18T17:08:05.796Z,44.74
2018-10-18T17:10:32.072Z,44.99
2018-10-18T17:12:58.406Z,44.63
2018-10-18T17:15:24.743Z,44.85
2018-10-18T17:17:51.104Z,44.65
2018-10-18T17:20:17.558Z,44.56
2018-10-18T17:22:43.762Z,44.64
2018-10-18T17:25:10.125Z,44.77
2018-10-18T17:27:36.455Z,44.74
2018-10-18T17:30:02.778Z,44.83
2018-10-18T17:32:29.092Z,45.14
2018-10-18T17:34:55.431Z,45.12
2018-10-18T17:37:21.927Z,45.36
2018-10-18T17:39:48.305Z,45.37
2018-10-18T17:42:14.696Z,45.27
2018-10-18T17:44:41.009Z,45.52
2018-10-18T17:47:07.318Z,45.43
2018-10-18T17:49:33.726Z,45.51
2018-10-18T17:52:00.062Z,45.27
2018-10-18T17:54:26.335Z,45.36
2018-10-18T17:56:52.714Z,45.45
2018-10-18T17:59:19.037Z,45.29
2018-10-18T18:01:45.382Z,45.48
2018-10-18T18:04:11.735Z,45.58
2018-10-18T18:06:38.208Z,45.88
2018-10-18T18:09:04.389Z,45.95
2018-10-18T18:11:30.750Z,46.01
2018-10-18T18:13:57.085Z,45.91
2018-10-18T18:16:23.413Z,46.20
2018-10-18T18:18:49.802Z,46.35
2018-10-18T18:21:16.135Z,46.64
2018-10-18T18:23:42.469Z,46.42
2018-10-18T18:26:08.823Z,46.67
2018-10-18T18:28:35.155Z,46.88
2018-10-18T18:31:01.508Z,46.85
2018-10-18T18:33:27.866Z,48.68
2018-10-18T18:35:54.193Z,48.71
2018-10-18T18:38:20.513Z,48.40
2018-10-18T18:40:46.854Z,48.26
2018-10-18T18:43:13.188Z,48.25
2018-10-18T18:45:39.910Z,48.34
2018-10-18T18:48:06.198Z,48.40
2018-10-18T18:50:32.519Z,48.61
2018-10-18T18:52:58.877Z,48.75
2018-10-18T18:55:25.155Z,48.75
2018-10-18T18:57:51.474Z,48.82
2018-10-18T19:00:17.860Z,48.82
2018-10-18T19:02:44.159Z,48.96
2018-10-18T19:05:10.475Z,49.00
2018-10-18T19:07:36.831Z,49.18
2018-10-18T19:10:03.168Z,49.23
2018-10-18T19:12:29.492Z,49.27
2018-10-18T19:14:55.863Z,49.42
2018-10-18T19:17:22.189Z,49.64
2018-10-18T19:19:48.529Z,49.76
2018-10-18T19:22:14.901Z,49.75
2018-10-18T19:24:41.244Z,50.04
2018-10-18T19:27:07.576Z,50.13
2018-10-18T19:29:33.895Z,50.24
2018-10-18T19:32:00.242Z,50.33
2018-10-18T19:34:26.584Z,50.37
2018-10-18T19:36:52.917Z,50.41
2018-10-18T19:39:19.290Z,50.42
2018-10-18T19:41:45.614Z,50.38
2018-10-18T19:44:12.035Z,50.42
2018-10-18T19:46:38.447Z,50.27
2018-10-18T19:49:04.740Z,50.27
2018-10-18T19:51:31.076Z,50.26
2018-10-18T19:53:57.409Z,50.31
2018-10-18T19:56:23.745Z,50.27
2018-10-18T19:58:50.086Z,50.23
2018-10-18T20:01:16.445Z,50.42
2018-10-18T20:03:42.785Z,50.46
2018-10-18T20:06:09.121Z,50.63
2018-10-18T20:08:35.457Z,50.77
2018-10-18T20:11:01.808Z,52.32
2018-10-18T20:13:28.130Z,52.15
2018-10-18T20:15:54.510Z,51.86
2018-10-18T20:18:20.852Z,51.93
2018-10-18T20:20:47.169Z,51.89
2018-10-18T20:23:13.497Z,51.79
2018-10-18T20:25:39.939Z,51.91
2018-10-18T20:28:06.122Z,51.79
2018-10-18T20:30:32.480Z,51.99
2018-10-18T20:32:58.865Z,52.00
2018-10-18T20:35:25.174Z,52.04
2018-10-18T20:37:51.487Z,52.00
2018-10-18T20:40:17.792Z,52.00
2018-10-18T20:42:44.137Z,52.11
2018-10-18T20:45:10.537Z,52.36
2018-10-18T20:47:36.893Z,52.21
2018-10-18T20:50:03.118Z,52.22
2018-10-18T20:52:29.508Z,52.23
2018-10-18T20:54:55.808Z,52.33
2018-10-18T20:57:22.136Z,52.47
2018-10-18T20:59:48.463Z,52.50
2018-10-18T21:02:14.823Z,52.53
2018-10-18T21:04:41.164Z,52.69
2018-10-18T21:07:07.491Z,52.84
2018-10-18T21:09:33.888Z,52.77
2018-10-18T21:12:00.244Z,52.83
2018-10-18T21:14:26.546Z,52.91
2018-10-18T21:16:52.902Z,52.95
2018-10-18T21:19:19.198Z,52.99
2018-10-18T21:21:45.614Z,52.97
2018-10-18T21:24:11.855Z,53.10
2018-10-18T21:26:38.180Z,53.30
2018-10-18T21:29:04.562Z,53.31
2018-10-18T21:31:30.881Z,53.43
2018-10-18T21:33:57.318Z,53.52
2018-10-18T21:36:23.578Z,53.66
2018-10-18T21:38:49.893Z,53.63
2018-10-18T21:41:16.227Z,53.90
2018-10-18T21:43:42.561Z,54.03
2018-10-18T21:46:08.889Z,53.98
2018-10-18T21:48:35.214Z,54.02
2018-10-18T21:51:01.600Z,54.21
2018-10-18T21:53:27.873Z,54.38
2018-10-18T21:55:54.197Z,54.68
2018-10-18T21:58:20.562Z,54.85
2018-10-18T22:00:46.905Z,54.94
2018-10-18T22:03:13.318Z,55.00
2018-10-18T22:05:39.572Z,55.10
2018-10-18T22:08:05.885Z,55.24
2018-10-18T22:10:32.217Z,55.35
2018-10-18T22:12:58.558Z,55.36
2018-10-18T22:15:24.923Z,55.43
2018-10-18T22:17:51.207Z,55.45
2018-10-18T22:20:17.534Z,55.51
2018-10-18T22:22:43.841Z,55.62
2018-10-18T22:25:10.155Z,55.60
2018-10-18T22:27:36.498Z,55.70
2018-10-18T22:30:02.840Z,55.82
2018-10-18T22:32:29.141Z,55.97
2018-10-18T22:34:55.484Z,55.93
2018-10-18T22:37:21.836Z,56.10
2018-10-18T22:39:48.093Z,56.16
2018-10-18T22:42:14.445Z,56.17
2018-10-18T22:44:40.812Z,56.27
2018-10-18T22:47:07.186Z,56.19
2018-10-18T22:49:33.482Z,56.13
2018-10-18T22:51:59.786Z,56.14
2018-10-18T22:54:26.133Z,56.29
2018-10-18T22:56:52.457Z,56.46
2018-10-18T22:59:18.828Z,56.52
2018-10-18T23:01:45.129Z,56.55
2018-10-18T23:04:11.497Z,56.58
2018-10-18T23:06:37.807Z,56.63
2018-10-18T23:09:04.156Z,56.65
2018-10-18T23:11:30.511Z,56.60
2018-10-18T23:13:56.808Z,56.75
2018-10-18T23:16:23.143Z,56.87
2018-10-18T23:18:49.439Z,56.88
2018-10-18T23:21:15.810Z,56.81
2018-10-18T23:23:42.096Z,56.85
2018-10-18T23:26:08.423Z,56.95
2018-10-18T23:28:34.754Z,56.88
2018-10-18T23:31:01.059Z,57.05
2018-10-18T23:33:27.363Z,57.06
2018-10-18T23:35:53.675Z,57.15
2018-10-18T23:38:19.985Z,57.21
2018-10-18T23:40:46.314Z,57.43
2018-10-18T23:43:12.629Z,57.50
2018-10-18T23:45:38.963Z,57.64
2018-10-18T23:48:05.295Z,57.76
2018-10-18T23:50:31.593Z,57.96
2018-10-18T23:52:57.934Z,58.13
2018-10-18T23:55:24.239Z,58.11
2018-10-18T23:57:50.582Z,58.18
